sensor_id;sensor_type;location;lat;lon;timestamp;pressure;altitude;pressure_sealevel;temperature;humidity
54146;BME280;65909;49.422;7.738;2023-06-10T00:01:44;-16276.47;;;-145.25;92.79
54146;BME280;65909;49.422;7.738;2023-06-10T00:04:13;-16276.47;;;-145.25;92.64
54146;BME280;65909;49.422;7.738;2023-06-10T00:06:40;-16276.47;;;-145.25;93.51
54146;BME280;65909;49.422;7.738;2023-06-10T00:09:06;-16276.47;;;-145.25;93.58
54146;BME280;65909;49.422;7.738;2023-06-10T00:11:35;-16276.47;;;-145.25;93.62
54146;BME280;65909;49.422;7.738;2023-06-10T00:14:01;-16276.47;;;-145.25;94.85
54146;BME280;65909;49.422;7.738;2023-06-10T00:16:27;-16276.47;;;-145.25;98.66
54146;BME280;65909;49.422;7.738;2023-06-10T00:18:52;-16276.47;;;-145.25;100.00
54146;BME280;65909;49.422;7.738;2023-06-10T00:21:18;-16276.47;;;-145.25;100.00
54146;BME280;65909;49.422;7.738;2023-06-10T00:23:44;-16276.47;;;-145.25;100.00
54146;BME280;65909;49.422;7.738;2023-06-10T00:26:09;-16276.47;;;-145.25;100.00
54146;BME280;65909;49.422;7.738;2023-06-10T00:28:35;-16276.47;;;-145.25;100.00
54146;BME280;65909;49.422;7.738;2023-06-10T00:31:01;-16276.47;;;-145.25;100.00
54146;BME280;65909;49.422;7.738;2023-06-10T00:33:26;-16276.47;;;-145.25;100.00
54146;BME280;65909;49.422;7.738;2023-06-10T00:35:52;-16276.47;;;-145.25;100.00
54146;BME280;65909;49.422;7.738;2023-06-10T00:38:17;-16276.47;;;-145.25;100.00
54146;BME280;65909;49.422;7.738;2023-06-10T00:40:42;-16276.47;;;-145.25;100.00
54146;BME280;65909;49.422;7.738;2023-06-10T00:43:08;-16276.47;;;-145.25;100.00
54146;BME280;65909;49.422;7.738;2023-06-10T00:45:33;-16276.47;;;-145.25;100.00
54146;BME280;65909;49.422;7.738;2023-06-10T00:48:00;-16276.47;;;-145.25;100.00
54146;BME280;65909;49.422;7.738;2023-06-10T00:50:26;-16276.47;;;-145.25;100.00
54146;BME280;65909;49.422;7.738;2023-06-10T00:52:51;-16276.47;;;-145.25;100.00
54146;BME280;65909;49.422;7.738;2023-06-10T00:55:18;-16276.47;;;-145.25;100.00
54146;BME280;65909;49.422;7.738;2023-06-10T00:57:45;-16276.47;;;-145.25;100.00
54146;BME280;65909;49.422;7.738;2023-06-10T01:00:12;-16276.47;;;-145.25;100.00
54146;BME280;65909;49.422;7.738;2023-06-10T01:02:37;-16276.47;;;-145.25;100.00
54146;BME280;65909;49.422;7.738;2023-06-10T01:05:03;-16276.47;;;-145.25;100.00
54146;BME280;65909;49.422;7.738;2023-06-10T01:07:56;-16276.47;;;-145.25;100.00
54146;BME280;65909;49.422;7.738;2023-06-10T01:10:33;-16276.47;;;-145.25;100.00
54146;BME280;65909;49.422;7.738;2023-06-10T01:13:07;-16276.47;;;-145.25;100.00
54146;BME280;65909;49.422;7.738;2023-06-10T01:15:34;-16276.47;;;-145.25;100.00
54146;BME280;65909;49.422;7.738;2023-06-10T01:18:02;-16276.47;;;-145.25;100.00
54146;BME280;65909;49.422;7.738;2023-06-10T01:20:29;-16276.47;;;-145.25;100.00
54146;BME280;65909;49.422;7.738;2023-06-10T01:22:58;-16276.47;;;-145.25;100.00
54146;BME280;65909;49.422;7.738;2023-06-10T01:25:24;-16276.47;;;-145.25;100.00
54146;BME280;65909;49.422;7.738;2023-06-10T01:28:18;-16276.47;;;-145.25;100.00
54146;BME280;65909;49.422;7.738;2023-06-10T01:33:43;-16276.47;;;-145.25;100.00
54146;BME280;65909;49.422;7.738;2023-06-10T01:36:11;-16276.47;;;-145.25;100.00
54146;BME280;65909;49.422;7.738;2023-06-10T01:38:40;-16276.47;;;-145.25;100.00
54146;BME280;65909;49.422;7.738;2023-06-10T01:41:08;-16276.47;;;-145.25;100.00
54146;BME280;65909;49.422;7.738;2023-06-10T01:43:37;-16276.47;;;-145.25;100.00
54146;BME280;65909;49.422;7.738;2023-06-10T01:46:02;-16276.47;;;-145.25;100.00
54146;BME280;65909;49.422;7.738;2023-06-10T01:48:28;-16276.47;;;-145.25;100.00
54146;BME280;65909;49.422;7.738;2023-06-10T01:50:53;-16276.47;;;-145.25;100.00
54146;BME280;65909;49.422;7.738;2023-06-10T01:53:21;-16276.47;;;-145.25;100.00
54146;BME280;65909;49.422;7.738;2023-06-10T01:55:46;-16276.47;;;-145.25;100.00
54146;BME280;65909;49.422;7.738;2023-06-10T01:58:11;-16276.47;;;-145.25;100.00
54146;BME280;65909;49.422;7.738;2023-06-10T02:00:37;-16276.47;;;-145.25;100.00
54146;BME280;65909;49.422;7.738;2023-06-10T02:03:02;-16276.47;;;-145.25;100.00
54146;BME280;65909;49.422;7.738;2023-06-10T02:05:28;-16276.47;;;-145.25;100.00
54146;BME280;65909;49.422;7.738;2023-06-10T02:07:53;-16276.47;;;-145.25;100.00
54146;BME280;65909;49.422;7.738;2023-06-10T02:10:18;-16276.47;;;-145.25;100.00
54146;BME280;65909;49.422;7.738;2023-06-10T02:12:44;-16276.47;;;-145.25;100.00
54146;BME280;65909;49.422;7.738;2023-06-10T02:15:09;-16276.47;;;-145.25;100.00
54146;BME280;65909;49.422;7.738;2023-06-10T02:17:35;-16276.47;;;-145.25;100.00
54146;BME280;65909;49.422;7.738;2023-06-10T02:20:00;-16276.47;;;-145.25;100.00
54146;BME280;65909;49.422;7.738;2023-06-10T02:22:31;-16276.47;;;-145.25;100.00
54146;BME280;65909;49.422;7.738;2023-06-10T02:24:57;-16276.47;;;-145.25;100.00
54146;BME280;65909;49.422;7.738;2023-06-10T02:27:22;-16276.47;;;-145.25;100.00
54146;BME280;65909;49.422;7.738;2023-06-10T02:29:47;-16276.47;;;-145.25;100.00
54146;BME280;65909;49.422;7.738;2023-06-10T02:32:13;-16276.47;;;-145.25;100.00
54146;BME280;65909;49.422;7.738;2023-06-10T02:34:38;-16276.47;;;-145.25;100.00
54146;BME280;65909;49.422;7.738;2023-06-10T02:37:04;-16276.47;;;-145.25;100.00
54146;BME280;65909;49.422;7.738;2023-06-10T02:39:29;-16276.47;;;-145.25;100.00
54146;BME280;65909;49.422;7.738;2023-06-10T02:41:54;-16276.47;;;-145.25;100.00
54146;BME280;65909;49.422;7.738;2023-06-10T02:44:20;-16276.47;;;-145.25;100.00
54146;BME280;65909;49.422;7.738;2023-06-10T02:46:45;-16276.47;;;-145.25;100.00
54146;BME280;65909;49.422;7.738;2023-06-10T02:49:11;-16276.47;;;-145.25;100.00
54146;BME280;65909;49.422;7.738;2023-06-10T02:51:37;-16276.47;;;-145.25;100.00
54146;BME280;65909;49.422;7.738;2023-06-10T02:54:02;-16276.47;;;-145.25;100.00
54146;BME280;65909;49.422;7.738;2023-06-10T02:56:28;-16276.47;;;-145.25;100.00
54146;BME280;65909;49.422;7.738;2023-06-10T02:58:53;-16276.47;;;-145.25;100.00
54146;BME280;65909;49.422;7.738;2023-06-10T03:01:18;-16276.47;;;-145.25;100.00
54146;BME280;65909;49.422;7.738;2023-06-10T03:03:44;-16276.47;;;-145.25;100.00
54146;BME280;65909;49.422;7.738;2023-06-10T03:06:11;-16276.47;;;-145.25;100.00
54146;BME280;65909;49.422;7.738;2023-06-10T03:08:37;-16276.47;;;-145.25;100.00
54146;BME280;65909;49.422;7.738;2023-06-10T03:11:03;-16276.47;;;-145.25;100.00
54146;BME280;65909;49.422;7.738;2023-06-10T03:13:28;-16276.47;;;-145.25;100.00
54146;BME280;65909;49.422;7.738;2023-06-10T03:15:54;-16276.47;;;-145.25;100.00
54146;BME280;65909;49.422;7.738;2023-06-10T03:18:19;-16276.47;;;-145.25;100.00
54146;BME280;65909;49.422;7.738;2023-06-10T03:20:45;-16276.47;;;-145.25;100.00
54146;BME280;65909;49.422;7.738;2023-06-10T03:23:11;-16276.47;;;-145.25;100.00
54146;BME280;65909;49.422;7.738;2023-06-10T03:25:36;-16276.47;;;-145.25;100.00
54146;BME280;65909;49.422;7.738;2023-06-10T03:28:02;-16276.47;;;-145.25;100.00
54146;BME280;65909;49.422;7.738;2023-06-10T03:30:28;-16276.47;;;-145.25;100.00
54146;BME280;65909;49.422;7.738;2023-06-10T03:32:53;-16276.47;;;-145.25;100.00
54146;BME280;65909;49.422;7.738;2023-06-10T03:35:19;-16276.47;;;-145.25;100.00
54146;BME280;65909;49.422;7.738;2023-06-10T03:37:44;-16276.47;;;-145.25;100.00
54146;BME280;65909;49.422;7.738;2023-06-10T03:40:09;-16276.47;;;-145.25;100.00
54146;BME280;65909;49.422;7.738;2023-06-10T03:42:35;-16276.47;;;-145.25;100.00
54146;BME280;65909;49.422;7.738;2023-06-10T03:45:01;-16276.47;;;-145.25;100.00
54146;BME280;65909;49.422;7.738;2023-06-10T03:47:29;-16276.47;;;-145.25;100.00
54146;BME280;65909;49.422;7.738;2023-06-10T03:49:58;-16276.47;;;-145.25;100.00
54146;BME280;65909;49.422;7.738;2023-06-10T03:52:23;-16276.47;;;-145.25;100.00
54146;BME280;65909;49.422;7.738;2023-06-10T03:54:49;-16276.47;;;-145.25;100.00
54146;BME280;65909;49.422;7.738;2023-06-10T03:57:14;-16276.47;;;-145.25;100.00
54146;BME280;65909;49.422;7.738;2023-06-10T03:59:39;-16276.47;;;-145.25;100.00
54146;BME280;65909;49.422;7.738;2023-06-10T04:02:05;-16276.47;;;-145.25;100.00
54146;BME280;65909;49.422;7.738;2023-06-10T04:04:32;-16276.47;;;-145.25;100.00
54146;BME280;65909;49.422;7.738;2023-06-10T04:06:57;-16276.47;;;-145.25;100.00
54146;BME280;65909;49.422;7.738;2023-06-10T04:09:22;-16276.47;;;-145.25;100.00
54146;BME280;65909;49.422;7.738;2023-06-10T04:11:48;-16276.47;;;-145.25;100.00
54146;BME280;65909;49.422;7.738;2023-06-10T04:14:13;-16276.47;;;-145.25;100.00
54146;BME280;65909;49.422;7.738;2023-06-10T04:16:38;-16276.47;;;-145.25;100.00
54146;BME280;65909;49.422;7.738;2023-06-10T04:19:04;-16276.47;;;-145.25;100.00
54146;BME280;65909;49.422;7.738;2023-06-10T04:21:29;-16276.47;;;-145.25;100.00
54146;BME280;65909;49.422;7.738;2023-06-10T04:23:55;-16276.47;;;-145.25;100.00
54146;BME280;65909;49.422;7.738;2023-06-10T04:26:20;-16276.47;;;-145.25;100.00
54146;BME280;65909;49.422;7.738;2023-06-10T04:28:47;-16276.47;;;-145.25;100.00
54146;BME280;65909;49.422;7.738;2023-06-10T04:31:12;-16276.47;;;-145.25;100.00
54146;BME280;65909;49.422;7.738;2023-06-10T04:33:37;-16276.47;;;-145.25;100.00
54146;BME280;65909;49.422;7.738;2023-06-10T04:36:03;-16276.47;;;-145.25;100.00
54146;BME280;65909;49.422;7.738;2023-06-10T04:38:29;-16276.47;;;-145.25;100.00
54146;BME280;65909;49.422;7.738;2023-06-10T04:40:55;-16276.47;;;-145.25;100.00
54146;BME280;65909;49.422;7.738;2023-06-10T04:43:21;-16276.47;;;-145.25;100.00
54146;BME280;65909;49.422;7.738;2023-06-10T04:45:47;-16276.47;;;-145.25;100.00
54146;BME280;65909;49.422;7.738;2023-06-10T04:48:12;-16276.47;;;-145.25;100.00
54146;BME280;65909;49.422;7.738;2023-06-10T04:50:38;-16276.47;;;-145.25;100.00
54146;BME280;65909;49.422;7.738;2023-06-10T04:53:04;-16276.47;;;-145.25;100.00
54146;BME280;65909;49.422;7.738;2023-06-10T04:55:29;-16276.47;;;-145.25;100.00
54146;BME280;65909;49.422;7.738;2023-06-10T04:57:54;-16276.47;;;-145.25;100.00
54146;BME280;65909;49.422;7.738;2023-06-10T05:00:20;-16276.47;;;-145.25;100.00
54146;BME280;65909;49.422;7.738;2023-06-10T05:02:45;-16276.47;;;-145.25;100.00
54146;BME280;65909;49.422;7.738;2023-06-10T05:05:16;-16276.47;;;-145.25;100.00
54146;BME280;65909;49.422;7.738;2023-06-10T05:07:41;-16276.47;;;-145.25;100.00
54146;BME280;65909;49.422;7.738;2023-06-10T05:10:07;-16276.47;;;-145.25;100.00
54146;BME280;65909;49.422;7.738;2023-06-10T05:12:32;-16276.47;;;-145.25;100.00
54146;BME280;65909;49.422;7.738;2023-06-10T05:14:58;-16276.47;;;-145.25;100.00
54146;BME280;65909;49.422;7.738;2023-06-10T05:17:23;-16276.47;;;-145.25;100.00
54146;BME280;65909;49.422;7.738;2023-06-10T05:19:50;-16276.47;;;-145.25;100.00
54146;BME280;65909;49.422;7.738;2023-06-10T05:22:16;-16276.47;;;-145.25;100.00
54146;BME280;65909;49.422;7.738;2023-06-10T05:24:43;-16276.47;;;-145.25;100.00
54146;BME280;65909;49.422;7.738;2023-06-10T05:27:09;-16276.47;;;-145.25;100.00
54146;BME280;65909;49.422;7.738;2023-06-10T05:29:35;-16276.47;;;-145.25;100.00
54146;BME280;65909;49.422;7.738;2023-06-10T05:32:00;-16276.47;;;-145.25;100.00
54146;BME280;65909;49.422;7.738;2023-06-10T05:34:29;-16276.47;;;-145.25;100.00
54146;BME280;65909;49.422;7.738;2023-06-10T05:36:54;-16276.47;;;-145.25;100.00
54146;BME280;65909;49.422;7.738;2023-06-10T05:39:19;-16276.47;;;-145.25;100.00
54146;BME280;65909;49.422;7.738;2023-06-10T05:41:46;-16276.47;;;-145.25;100.00
54146;BME280;65909;49.422;7.738;2023-06-10T05:44:11;-16276.47;;;-145.25;100.00
54146;BME280;65909;49.422;7.738;2023-06-10T05:46:37;-16276.47;;;-145.25;100.00
54146;BME280;65909;49.422;7.738;2023-06-10T05:49:02;-16276.47;;;-145.25;100.00
54146;BME280;65909;49.422;7.738;2023-06-10T05:51:28;-16276.47;;;-145.25;100.00
54146;BME280;65909;49.422;7.738;2023-06-10T05:53:54;-16276.47;;;-145.25;100.00
54146;BME280;65909;49.422;7.738;2023-06-10T05:56:19;-16276.47;;;-145.25;99.99
54146;BME280;65909;49.422;7.738;2023-06-10T05:58:46;-16276.47;;;-145.25;100.00
54146;BME280;65909;49.422;7.738;2023-06-10T06:01:12;-16276.47;;;-145.25;100.00
54146;BME280;65909;49.422;7.738;2023-06-10T06:03:37;-16276.47;;;-145.25;100.00
54146;BME280;65909;49.422;7.738;2023-06-10T06:06:03;-16276.47;;;-145.25;100.00
54146;BME280;65909;49.422;7.738;2023-06-10T06:08:29;-16276.47;;;-145.25;100.00
54146;BME280;65909;49.422;7.738;2023-06-10T06:10:54;-16276.47;;;-145.25;100.00
54146;BME280;65909;49.422;7.738;2023-06-10T06:13:20;-16276.47;;;-145.25;99.94
54146;BME280;65909;49.422;7.738;2023-06-10T06:15:45;-16276.47;;;-145.25;99.58
54146;BME280;65909;49.422;7.738;2023-06-10T06:18:10;-16276.47;;;-145.25;98.75
54146;BME280;65909;49.422;7.738;2023-06-10T06:20:36;-16276.47;;;-145.25;97.89
54146;BME280;65909;49.422;7.738;2023-06-10T06:23:01;-16276.47;;;-145.25;97.01
54146;BME280;65909;49.422;7.738;2023-06-10T06:25:26;-16276.47;;;-145.25;96.58
54146;BME280;65909;49.422;7.738;2023-06-10T06:27:52;-16276.47;;;-145.25;95.82
54146;BME280;65909;49.422;7.738;2023-06-10T06:30:17;-16276.47;;;-145.25;94.73
54146;BME280;65909;49.422;7.738;2023-06-10T06:32:43;-16276.47;;;-145.25;91.06
54146;BME280;65909;49.422;7.738;2023-06-10T06:35:08;-16276.47;;;-145.25;88.06
54146;BME280;65909;49.422;7.738;2023-06-10T06:37:34;-16276.47;;;-145.25;86.22
54146;BME280;65909;49.422;7.738;2023-06-10T06:40:00;-16276.47;;;-145.25;83.50
54146;BME280;65909;49.422;7.738;2023-06-10T06:42:25;-16276.47;;;-145.25;81.05
54146;BME280;65909;49.422;7.738;2023-06-10T06:44:50;-16276.47;;;-145.25;78.97
54146;BME280;65909;49.422;7.738;2023-06-10T06:47:16;-16276.47;;;-145.25;76.64
54146;BME280;65909;49.422;7.738;2023-06-10T06:49:48;-16276.47;;;-145.25;75.13
54146;BME280;65909;49.422;7.738;2023-06-10T06:52:15;-16276.47;;;-145.25;73.57
54146;BME280;65909;49.422;7.738;2023-06-10T06:54:40;-16276.47;;;-145.25;71.00
54146;BME280;65909;49.422;7.738;2023-06-10T06:57:06;-16276.47;;;-145.25;69.38
54146;BME280;65909;49.422;7.738;2023-06-10T06:59:32;-16276.47;;;-145.25;67.14
54146;BME280;65909;49.422;7.738;2023-06-10T07:01:57;-16276.47;;;-145.25;66.82
54146;BME280;65909;49.422;7.738;2023-06-10T07:04:23;-16276.47;;;-145.25;64.70
54146;BME280;65909;49.422;7.738;2023-06-10T07:06:48;-16276.47;;;-145.25;63.78
54146;BME280;65909;49.422;7.738;2023-06-10T07:09:14;-16276.47;;;-145.25;61.86
54146;BME280;65909;49.422;7.738;2023-06-10T07:11:39;-16276.47;;;-145.25;60.90
54146;BME280;65909;49.422;7.738;2023-06-10T07:14:05;-16276.47;;;-145.25;59.43
54146;BME280;65909;49.422;7.738;2023-06-10T07:16:30;-16276.47;;;-145.25;57.84
54146;BME280;65909;49.422;7.738;2023-06-10T07:18:56;-16276.47;;;-145.25;56.84
54146;BME280;65909;49.422;7.738;2023-06-10T07:21:21;-16276.47;;;-145.25;56.11
54146;BME280;65909;49.422;7.738;2023-06-10T07:23:48;-16276.47;;;-145.25;55.56
54146;BME280;65909;49.422;7.738;2023-06-10T07:26:14;-16276.47;;;-145.25;54.16
54146;BME280;65909;49.422;7.738;2023-06-10T07:28:40;-16276.47;;;-145.25;52.27
54146;BME280;65909;49.422;7.738;2023-06-10T07:31:07;-16276.47;;;-145.25;51.40
54146;BME280;65909;49.422;7.738;2023-06-10T07:33:32;-16275.00;;;-145.25;50.71
54146;BME280;65909;49.422;7.738;2023-06-10T07:35:57;-14520.31;;;-145.25;49.34
54146;BME280;65909;49.422;7.738;2023-06-10T07:38:25;-11259.47;;;-145.25;47.94
54146;BME280;65909;49.422;7.738;2023-06-10T07:40:50;-11259.47;;;-145.25;48.18
54146;BME280;65909;49.422;7.738;2023-06-10T07:43:16;-10004.56;;;-145.25;47.89
54146;BME280;65909;49.422;7.738;2023-06-10T07:45:41;-7744.72;;;-145.25;47.02
54146;BME280;65909;49.422;7.738;2023-06-10T07:48:07;-1963.47;;;-145.25;45.14
54146;BME280;65909;49.422;7.738;2023-06-10T07:50:32;4330.38;;;-145.25;43.95
54146;BME280;65909;49.422;7.738;2023-06-10T07:52:58;4582.34;;;-145.25;43.93
54146;BME280;65909;49.422;7.738;2023-06-10T07:55:23;12401.50;;;-145.25;42.22
54146;BME280;65909;49.422;7.738;2023-06-10T07:57:51;14421.91;;;-145.25;42.00
54146;BME280;65909;49.422;7.738;2023-06-10T08:00:16;19477.53;;;-145.25;41.57
54146;BME280;65909;49.422;7.738;2023-06-10T08:02:42;31199.78;;;-145.25;40.02
54146;BME280;65909;49.422;7.738;2023-06-10T08:05:07;28301.06;;;-145.25;40.51
54146;BME280;65909;49.422;7.738;2023-06-10T08:07:33;37750.06;;;-145.25;39.29
54146;BME280;65909;49.422;7.738;2023-06-10T08:09:58;39285.06;;;-145.25;38.77
54146;BME280;65909;49.422;7.738;2023-06-10T08:12:24;43593.44;;;-145.25;37.23
54146;BME280;65909;49.422;7.738;2023-06-10T08:14:49;42897.59;;;-145.25;37.60
54146;BME280;65909;49.422;7.738;2023-06-10T08:17:15;44086.56;;;-145.25;36.98
54146;BME280;65909;49.422;7.738;2023-06-10T08:19:40;45218.25;;;-145.25;36.48
54146;BME280;65909;49.422;7.738;2023-06-10T08:22:05;45021.31;;;-145.25;36.55
54146;BME280;65909;49.422;7.738;2023-06-10T08:24:31;45940.38;;;-145.25;36.07
54146;BME280;65909;49.422;7.738;2023-06-10T08:26:56;45548.47;;;-145.25;36.50
54146;BME280;65909;49.422;7.738;2023-06-10T08:29:23;45725.53;;;-145.25;36.21
54146;BME280;65909;49.422;7.738;2023-06-10T08:31:49;46620.84;;;-145.25;35.50
54146;BME280;65909;49.422;7.738;2023-06-10T08:34:14;46887.50;;;-145.25;35.46
54146;BME280;65909;49.422;7.738;2023-06-10T08:36:40;47946.34;;;-145.25;34.50
54146;BME280;65909;49.422;7.738;2023-06-10T08:39:05;47281.56;;;-145.25;35.17
54146;BME280;65909;49.422;7.738;2023-06-10T08:41:34;47834.88;;;-145.25;34.43
54146;BME280;65909;49.422;7.738;2023-06-10T08:46:32;48364.38;;;-145.25;34.08
54146;BME280;65909;49.422;7.738;2023-06-10T08:49:02;48939.75;;;-145.25;32.94
54146;BME280;65909;49.422;7.738;2023-06-10T08:51:29;48854.13;;;-145.25;33.21
54146;BME280;65909;49.422;7.738;2023-06-10T08:54:02;48989.50;;;-145.25;33.17
54146;BME280;65909;49.422;7.738;2023-06-10T08:56:29;49146.81;;;-145.25;32.99
54146;BME280;65909;49.422;7.738;2023-06-10T08:58:56;49256.31;;;-145.25;32.57
54146;BME280;65909;49.422;7.738;2023-06-10T09:01:24;49332.00;;;-145.25;32.64
54146;BME280;65909;49.422;7.738;2023-06-10T09:03:50;49393.72;;;-145.25;32.54
54146;BME280;65909;49.422;7.738;2023-06-10T09:06:15;49461.44;;;-145.25;32.45
54146;BME280;65909;49.422;7.738;2023-06-10T09:08:42;49608.78;;;-145.25;31.80
54146;BME280;65909;49.422;7.738;2023-06-10T09:11:07;49748.19;;;-145.25;31.55
54146;BME280;65909;49.422;7.738;2023-06-10T09:13:33;49831.81;;;-145.25;31.63
54146;BME280;65909;49.422;7.738;2023-06-10T09:15:58;50142.50;;;-145.25;30.69
54146;BME280;65909;49.422;7.738;2023-06-10T09:18:27;49997.13;;;-145.25;31.13
54146;BME280;65909;49.422;7.738;2023-06-10T09:20:52;50076.78;;;-145.25;31.03
54146;BME280;65909;49.422;7.738;2023-06-10T09:23:18;50295.88;;;-145.25;30.37
54146;BME280;65909;49.422;7.738;2023-06-10T09:25:44;50333.72;;;-145.25;30.01
54146;BME280;65909;49.422;7.738;2023-06-10T09:28:14;50369.56;;;-145.25;30.09
54146;BME280;65909;49.422;7.738;2023-06-10T09:30:40;50483.09;;;-145.25;29.53
54146;BME280;65909;49.422;7.738;2023-06-10T09:33:14;50495.03;;;-145.25;29.76
54146;BME280;65909;49.422;7.738;2023-06-10T09:35:48;50558.78;;;-145.25;29.21
54146;BME280;65909;49.422;7.738;2023-06-10T09:38:23;50399.44;;;-145.25;29.87
54146;BME280;65909;49.422;7.738;2023-06-10T09:40:54;50375.53;;;-145.25;29.93
54146;BME280;65909;49.422;7.738;2023-06-10T09:43:20;50497.03;;;-145.25;29.72
54146;BME280;65909;49.422;7.738;2023-06-10T09:45:55;50552.81;;;-145.25;29.21
54146;BME280;65909;49.422;7.738;2023-06-10T09:48:22;50582.69;;;-145.25;29.13
54146;BME280;65909;49.422;7.738;2023-06-10T09:50:48;50594.63;;;-145.25;29.16
54146;BME280;65909;49.422;7.738;2023-06-10T09:53:14;50626.50;;;-145.25;29.04
54146;BME280;65909;49.422;7.738;2023-06-10T09:55:41;50726.09;;;-145.25;28.60
54146;BME280;65909;49.422;7.738;2023-06-10T09:58:07;50566.75;;;-145.25;29.28
54146;BME280;65909;49.422;7.738;2023-06-10T10:00:33;50564.75;;;-145.25;29.40
54146;BME280;65909;49.422;7.738;2023-06-10T10:02:59;50578.69;;;-145.25;29.61
54146;BME280;65909;49.422;7.738;2023-06-10T10:05:24;50684.28;;;-145.25;28.99
54146;BME280;65909;49.422;7.738;2023-06-10T10:07:51;50518.94;;;-145.25;29.30
54146;BME280;65909;49.422;7.738;2023-06-10T10:10:18;50628.50;;;-145.25;29.34
54146;BME280;65909;49.422;7.738;2023-06-10T10:12:47;50730.09;;;-145.25;28.88
54146;BME280;65909;49.422;7.738;2023-06-10T10:15:15;50750.00;;;-145.25;28.93
54146;BME280;65909;49.422;7.738;2023-06-10T10:17:55;50546.84;;;-145.25;29.29
54146;BME280;65909;49.422;7.738;2023-06-10T10:20:27;50503.00;;;-145.25;29.57
54146;BME280;65909;49.422;7.738;2023-06-10T10:22:56;50481.09;;;-145.25;29.86
54146;BME280;65909;49.422;7.738;2023-06-10T10:25:31;50632.47;;;-145.25;29.24
54146;BME280;65909;49.422;7.738;2023-06-10T10:28:09;50759.97;;;-145.25;27.83
54146;BME280;65909;49.422;7.738;2023-06-10T10:30:40;50716.16;;;-145.25;28.19
54146;BME280;65909;49.422;7.738;2023-06-10T10:35:59;50700.22;;;-145.25;27.95
54146;BME280;65909;49.422;7.738;2023-06-10T10:38:26;50672.31;;;-145.25;27.33
54146;BME280;65909;49.422;7.738;2023-06-10T10:40:53;50640.44;;;-145.25;28.22
54146;BME280;65909;49.422;7.738;2023-06-10T10:43:21;50556.78;;;-145.25;28.43
54146;BME280;65909;49.422;7.738;2023-06-10T10:46:00;50471.16;;;-145.25;28.71
54146;BME280;65909;49.422;7.738;2023-06-10T10:48:26;50483.09;;;-145.25;28.66
54146;BME280;65909;49.422;7.738;2023-06-10T10:50:58;50495.03;;;-145.25;28.64
54146;BME280;65909;49.422;7.738;2023-06-10T10:53:24;50590.66;;;-145.25;28.13
54146;BME280;65909;49.422;7.738;2023-06-10T10:58:29;50530.91;;;-145.25;28.45
54146;BME280;65909;49.422;7.738;2023-06-10T11:00:55;50524.91;;;-145.25;29.16
54146;BME280;65909;49.422;7.738;2023-06-10T11:03:20;50576.72;;;-145.25;28.08
54146;BME280;65909;49.422;7.738;2023-06-10T11:05:47;50592.66;;;-145.25;27.99
54146;BME280;65909;49.422;7.738;2023-06-10T11:08:15;50628.50;;;-145.25;27.92
54146;BME280;65909;49.422;7.738;2023-06-10T11:10:42;50600.63;;;-145.25;28.41
54146;BME280;65909;49.422;7.738;2023-06-10T11:13:19;50680.28;;;-145.25;27.25
54146;BME280;65909;49.422;7.738;2023-06-10T11:15:49;50598.63;;;-145.25;28.04
54146;BME280;65909;49.422;7.738;2023-06-10T11:18:26;50628.50;;;-145.25;28.20
54146;BME280;65909;49.422;7.738;2023-06-10T11:21:02;50558.78;;;-145.25;28.28
54146;BME280;65909;49.422;7.738;2023-06-10T11:31:24;50385.50;;;-145.25;29.27
54146;BME280;65909;49.422;7.738;2023-06-10T11:33:56;50393.47;;;-145.25;29.38
54146;BME280;65909;49.422;7.738;2023-06-10T11:36:23;50435.28;;;-145.25;29.28
54146;BME280;65909;49.422;7.738;2023-06-10T11:38:50;50548.81;;;-145.25;28.44
54146;BME280;65909;49.422;7.738;2023-06-10T11:41:17;50471.16;;;-145.25;29.13
54146;BME280;65909;49.422;7.738;2023-06-10T11:43:43;50341.69;;;-145.25;29.57
54146;BME280;65909;49.422;7.738;2023-06-10T11:46:10;50204.25;;;-145.25;30.33
54146;BME280;65909;49.422;7.738;2023-06-10T11:48:35;50172.38;;;-145.25;30.50
54146;BME280;65909;49.422;7.738;2023-06-10T11:51:06;50168.41;;;-145.25;30.11
54146;BME280;65909;49.422;7.738;2023-06-10T11:53:31;50064.84;;;-145.25;30.64
54146;BME280;65909;49.422;7.738;2023-06-10T11:55:56;50042.94;;;-145.25;30.75
54146;BME280;65909;49.422;7.738;2023-06-10T11:58:22;50092.72;;;-145.25;30.40
54146;BME280;65909;49.422;7.738;2023-06-10T12:00:48;50108.66;;;-145.25;30.36
54146;BME280;65909;49.422;7.738;2023-06-10T12:03:13;49977.19;;;-145.25;31.14
54146;BME280;65909;49.422;7.738;2023-06-10T12:05:38;50040.94;;;-145.25;30.75
54146;BME280;65909;49.422;7.738;2023-06-10T12:08:11;50068.81;;;-145.25;30.70
54146;BME280;65909;49.422;7.738;2023-06-10T12:10:42;49754.16;;;-145.25;31.86
54146;BME280;65909;49.422;7.738;2023-06-10T12:13:09;49903.53;;;-145.25;31.12
54146;BME280;65909;49.422;7.738;2023-06-10T12:15:34;49865.69;;;-145.25;31.64
54146;BME280;65909;49.422;7.738;2023-06-10T12:18:00;49903.53;;;-145.25;31.44
54146;BME280;65909;49.422;7.738;2023-06-10T12:20:31;49901.53;;;-145.25;31.42
54146;BME280;65909;49.422;7.738;2023-06-10T12:23:07;50218.19;;;-145.25;29.85
54146;BME280;65909;49.422;7.738;2023-06-10T12:25:33;50140.50;;;-145.25;30.47
54146;BME280;65909;49.422;7.738;2023-06-10T12:27:59;49991.16;;;-145.25;31.18
54146;BME280;65909;49.422;7.738;2023-06-10T12:30:25;49921.44;;;-145.25;31.26
54146;BME280;65909;49.422;7.738;2023-06-10T12:32:51;49903.53;;;-145.25;31.35
54146;BME280;65909;49.422;7.738;2023-06-10T12:35:20;49909.50;;;-145.25;31.23
54146;BME280;65909;49.422;7.738;2023-06-10T12:38:02;49973.22;;;-145.25;31.35
54146;BME280;65909;49.422;7.738;2023-06-10T12:40:34;49909.50;;;-145.25;31.35
54146;BME280;65909;49.422;7.738;2023-06-10T12:43:00;49678.47;;;-145.25;32.07
54146;BME280;65909;49.422;7.738;2023-06-10T12:45:30;49927.41;;;-145.25;31.61
54146;BME280;65909;49.422;7.738;2023-06-10T12:48:18;49977.19;;;-145.25;31.37